sensor_id;sensor_type;location;lat;lon;timestamp;pressure;altitude;pressure_sealevel;temperature;humidity
53340;BME280;46212;50.258;19.062;2023-03-26T00:00:44;97546.81;;;7.74;73.32
53340;BME280;46212;50.258;19.062;2023-03-26T00:03:10;97556.44;;;7.79;73.06
53340;BME280;46212;50.258;19.062;2023-03-26T00:05:37;97545.44;;;7.79;73.07
53340;BME280;46212;50.258;19.062;2023-03-26T00:08:02;97560.09;;;7.85;73.15
53340;BME280;46212;50.258;19.062;2023-03-26T00:10:28;97557.63;;;7.87;72.92
53340;BME280;46212;50.258;19.062;2023-03-26T00:12:53;97562.22;;;7.81;73.09
53340;BME280;46212;50.258;19.062;2023-03-26T00:15:19;97555.69;;;7.78;73.71
53340;BME280;46212;50.258;19.062;2023-03-26T00:17:44;97565.47;;;7.79;73.41
53340;BME280;46212;50.258;19.062;2023-03-26T00:20:13;97571.09;;;7.85;73.51
53340;BME280;46212;50.258;19.062;2023-03-26T00:22:39;97575.81;;;7.84;73.68
53340;BME280;46212;50.258;19.062;2023-03-26T00:25:05;97592.00;;;7.91;73.46
53340;BME280;46212;50.258;19.062;2023-03-26T00:27:31;97603.31;;;7.84;75.15
53340;BME280;46212;50.258;19.062;2023-03-26T00:29:58;97577.69;;;7.69;77.16
53340;BME280;46212;50.258;19.062;2023-03-26T00:32:26;97553.78;;;7.33;78.80
53340;BME280;46212;50.258;19.062;2023-03-26T00:34:53;97544.19;;;7.20;79.68
53340;BME280;46212;50.258;19.062;2023-03-26T00:37:21;97547.84;;;7.17;81.69
53340;BME280;46212;50.258;19.062;2023-03-26T00:39:54;97548.91;;;7.19;82.23
53340;BME280;46212;50.258;19.062;2023-03-26T00:42:24;97539.59;;;7.08;83.19
53340;BME280;46212;50.258;19.062;2023-03-26T00:44:50;97547.25;;;7.13;83.81
53340;BME280;46212;50.258;19.062;2023-03-26T00:47:22;97540.22;;;7.12;84.36
53340;BME280;46212;50.258;19.062;2023-03-26T00:49:48;97533.03;;;7.14;84.60
53340;BME280;46212;50.258;19.062;2023-03-26T00:52:15;97531.69;;;7.01;86.04
53340;BME280;46212;50.258;19.062;2023-03-26T00:54:45;97529.88;;;7.07;85.88
53340;BME280;46212;50.258;19.062;2023-03-26T00:57:13;97523.44;;;7.10;86.06
53340;BME280;46212;50.258;19.062;2023-03-26T00:59:39;97519.78;;;7.04;86.72
53340;BME280;46212;50.258;19.062;2023-03-26T01:02:06;97520.22;;;7.11;86.02
53340;BME280;46212;50.258;19.062;2023-03-26T01:04:35;97514.59;;;7.06;85.33
53340;BME280;46212;50.258;19.062;2023-03-26T01:07:10;97511.72;;;6.91;86.41
53340;BME280;46212;50.258;19.062;2023-03-26T01:09:40;97498.75;;;7.01;86.11
53340;BME280;46212;50.258;19.062;2023-03-26T01:12:13;97504.06;;;7.04;85.80
53340;BME280;46212;50.258;19.062;2023-03-26T01:14:43;97502.25;;;6.92;85.52
53340;BME280;46212;50.258;19.062;2023-03-26T01:17:08;97505.00;;;6.92;85.90
53340;BME280;46212;50.258;19.062;2023-03-26T01:20:07;97503.31;;;6.76;86.22
53340;BME280;46212;50.258;19.062;2023-03-26T01:22:40;97496.00;;;6.73;85.75
53340;BME280;46212;50.258;19.062;2023-03-26T01:25:07;97499.66;;;6.70;86.00
53340;BME280;46212;50.258;19.062;2023-03-26T01:27:34;97494.16;;;6.61;86.34
53340;BME280;46212;50.258;19.062;2023-03-26T01:30:46;97506.66;;;6.62;86.14
53340;BME280;46212;50.258;19.062;2023-03-26T01:36:28;97504.38;;;6.52;86.62
53340;BME280;46212;50.258;19.062;2023-03-26T01:39:04;97506.03;;;6.49;86.61
53340;BME280;46212;50.258;19.062;2023-03-26T01:41:50;97503.72;;;6.38;86.99
53340;BME280;46212;50.258;19.062;2023-03-26T01:46:47;97501.91;;;6.35;86.69
53340;BME280;46212;50.258;19.062;2023-03-26T01:49:14;97495.94;;;6.28;86.65
53340;BME280;46212;50.258;19.062;2023-03-26T01:51:41;97497.63;;;6.34;86.64
53340;BME280;46212;50.258;19.062;2023-03-26T01:54:10;97500.97;;;6.29;86.46
53340;BME280;46212;50.258;19.062;2023-03-26T02:01:50;97496.56;;;6.32;85.81
53340;BME280;46212;50.258;19.062;2023-03-26T02:04:34;97499.63;;;6.34;85.49
53340;BME280;46212;50.258;19.062;2023-03-26T02:07:22;97502.38;;;6.34;84.85
53340;BME280;46212;50.258;19.062;2023-03-26T02:09:54;97488.81;;;6.39;84.63
53340;BME280;46212;50.258;19.062;2023-03-26T02:12:22;97493.25;;;6.46;84.07
53340;BME280;46212;50.258;19.062;2023-03-26T02:14:49;97488.69;;;6.52;83.49
53340;BME280;46212;50.258;19.062;2023-03-26T02:17:15;97489.13;;;6.60;82.33
53340;BME280;46212;50.258;19.062;2023-03-26T02:19:41;97493.41;;;6.61;82.67
53340;BME280;46212;50.258;19.062;2023-03-26T02:22:08;97489.16;;;6.69;82.58
53340;BME280;46212;50.258;19.062;2023-03-26T02:24:38;97503.00;;;6.74;82.25
53340;BME280;46212;50.258;19.062;2023-03-26T02:27:04;97487.59;;;6.95;81.10
53340;BME280;46212;50.258;19.062;2023-03-26T02:29:34;97504.25;;;7.01;79.97
53340;BME280;46212;50.258;19.062;2023-03-26T02:32:05;97504.06;;;6.86;80.96
53340;BME280;46212;50.258;19.062;2023-03-26T02:34:31;97506.22;;;6.91;80.13
53340;BME280;46212;50.258;19.062;2023-03-26T02:36:56;97507.44;;;6.90;80.39
53340;BME280;46212;50.258;19.062;2023-03-26T02:39:23;97506.81;;;6.86;80.83
53340;BME280;46212;50.258;19.062;2023-03-26T02:41:49;97515.03;;;7.04;80.16
53340;BME280;46212;50.258;19.062;2023-03-26T02:44:14;97508.19;;;7.09;80.07
53340;BME280;46212;50.258;19.062;2023-03-26T02:46:40;97502.25;;;7.01;79.80
53340;BME280;46212;50.258;19.062;2023-03-26T02:49:05;97499.19;;;7.08;79.80
53340;BME280;46212;50.258;19.062;2023-03-26T02:51:32;97503.31;;;6.94;80.22
53340;BME280;46212;50.258;19.062;2023-03-26T02:53:59;97501.94;;;6.99;80.34
53340;BME280;46212;50.258;19.062;2023-03-26T02:56:26;97485.63;;;6.95;80.35
53340;BME280;46212;50.258;19.062;2023-03-26T02:58:51;97480.13;;;6.95;80.00
53340;BME280;46212;50.258;19.062;2023-03-26T03:01:16;97484.28;;;6.91;80.78
53340;BME280;46212;50.258;19.062;2023-03-26T03:03:42;97472.22;;;6.98;80.44
53340;BME280;46212;50.258;19.062;2023-03-26T03:06:08;97466.56;;;7.01;79.97
53340;BME280;46212;50.258;19.062;2023-03-26T03:08:33;97462.31;;;6.91;80.37
53340;BME280;46212;50.258;19.062;2023-03-26T03:13:25;97472.81;;;7.02;80.50
53340;BME280;46212;50.258;19.062;2023-03-26T03:15:51;97482.59;;;6.93;80.60
53340;BME280;46212;50.258;19.062;2023-03-26T03:18:16;97481.34;;;6.94;80.76
53340;BME280;46212;50.258;19.062;2023-03-26T03:20:41;97475.41;;;6.96;80.38
53340;BME280;46212;50.258;19.062;2023-03-26T03:23:08;97478.16;;;6.87;81.02
53340;BME280;46212;50.258;19.062;2023-03-26T03:25:34;97469.94;;;6.96;80.68
53340;BME280;46212;50.258;19.062;2023-03-26T03:27:59;97467.66;;;7.04;80.67
53340;BME280;46212;50.258;19.062;2023-03-26T03:30:25;97466.88;;;6.94;80.86
53340;BME280;46212;50.258;19.062;2023-03-26T03:32:50;97468.13;;;6.75;81.73
53340;BME280;46212;50.258;19.062;2023-03-26T03:35:16;97458.34;;;6.83;81.39
53340;BME280;46212;50.258;19.062;2023-03-26T03:37:41;97461.56;;;6.90;81.07
53340;BME280;46212;50.258;19.062;2023-03-26T03:40:07;97464.31;;;6.81;80.77
53340;BME280;46212;50.258;19.062;2023-03-26T03:42:35;97466.88;;;6.67;81.60
53340;BME280;46212;50.258;19.062;2023-03-26T03:45:01;97462.63;;;6.75;81.23
53340;BME280;46212;50.258;19.062;2023-03-26T03:47:27;97469.19;;;6.68;80.87
53340;BME280;46212;50.258;19.062;2023-03-26T03:49:52;97469.91;;;6.60;81.31
53340;BME280;46212;50.258;19.062;2023-03-26T03:52:18;97469.31;;;6.56;81.88
53340;BME280;46212;50.258;19.062;2023-03-26T03:54:43;97478.00;;;6.63;81.39
53340;BME280;46212;50.258;19.062;2023-03-26T03:57:09;97478.31;;;6.65;80.98
53340;BME280;46212;50.258;19.062;2023-03-26T03:59:34;97474.66;;;6.68;80.56
53340;BME280;46212;50.258;19.062;2023-03-26T04:01:59;97472.97;;;6.53;81.13
53340;BME280;46212;50.258;19.062;2023-03-26T04:04:25;97488.22;;;6.63;80.81
53340;BME280;46212;50.258;19.062;2023-03-26T04:06:51;97488.09;;;6.75;80.20
53340;BME280;46212;50.258;19.062;2023-03-26T04:09:17;97490.22;;;6.71;80.72
53340;BME280;46212;50.258;19.062;2023-03-26T04:11:42;97479.09;;;6.84;80.23
53340;BME280;46212;50.258;19.062;2023-03-26T04:14:08;97477.25;;;6.81;80.58
53340;BME280;46212;50.258;19.062;2023-03-26T04:16:34;97483.94;;;6.98;79.49
53340;BME280;46212;50.258;19.062;2023-03-26T04:19:00;97483.50;;;7.00;79.33
53340;BME280;46212;50.258;19.062;2023-03-26T04:21:27;97473.44;;;7.06;78.86
53340;BME280;46212;50.258;19.062;2023-03-26T04:23:54;97488.06;;;7.12;78.36
53340;BME280;46212;50.258;19.062;2023-03-26T04:26:20;97481.19;;;7.07;78.04
53340;BME280;46212;50.258;19.062;2023-03-26T04:28:54;97477.53;;;7.01;78.92
53340;BME280;46212;50.258;19.062;2023-03-26T04:31:22;97476.78;;;7.01;79.09
53340;BME280;46212;50.258;19.062;2023-03-26T04:33:54;97470.66;;;7.15;78.96
53340;BME280;46212;50.258;19.062;2023-03-26T04:36:27;97476.00;;;7.18;78.29
53340;BME280;46212;50.258;19.062;2023-03-26T04:38:53;97477.84;;;7.12;78.71
53340;BME280;46212;50.258;19.062;2023-03-26T04:41:20;97484.53;;;7.11;78.97
53340;BME280;46212;50.258;19.062;2023-03-26T04:43:46;97486.06;;;7.12;78.67
53340;BME280;46212;50.258;19.062;2023-03-26T04:46:17;97480.88;;;7.14;79.19
53340;BME280;46212;50.258;19.062;2023-03-26T04:48:46;97476.63;;;7.13;79.32
53340;BME280;46212;50.258;19.062;2023-03-26T04:51:12;97483.19;;;7.16;79.74
53340;BME280;46212;50.258;19.062;2023-03-26T04:53:53;97483.47;;;7.09;79.32
53340;BME280;46212;50.258;19.062;2023-03-26T04:58:59;97474.19;;;7.06;79.06
53340;BME280;46212;50.258;19.062;2023-03-26T05:01:25;97477.84;;;7.03;79.05
53340;BME280;46212;50.258;19.062;2023-03-26T05:03:53;97469.91;;;7.05;78.63
53340;BME280;46212;50.258;19.062;2023-03-26T05:06:19;97478.00;;;7.09;78.58
53340;BME280;46212;50.258;19.062;2023-03-26T05:08:44;97480.28;;;7.01;78.40
53340;BME280;46212;50.258;19.062;2023-03-26T05:11:10;97468.84;;;7.12;77.73
53340;BME280;46212;50.258;19.062;2023-03-26T05:13:36;97459.09;;;7.02;77.93
53340;BME280;46212;50.258;19.062;2023-03-26T05:16:02;97469.63;;;7.03;77.70
53340;BME280;46212;50.258;19.062;2023-03-26T05:18:27;97469.00;;;6.99;77.35
53340;BME280;46212;50.258;19.062;2023-03-26T05:20:53;97457.84;;;7.12;77.40
53340;BME280;46212;50.258;19.062;2023-03-26T05:23:20;97471.72;;;7.17;76.74
53340;BME280;46212;50.258;19.062;2023-03-26T05:25:45;97481.66;;;7.15;76.55
53340;BME280;46212;50.258;19.062;2023-03-26T05:28:11;97470.66;;;7.15;76.70
53340;BME280;46212;50.258;19.062;2023-03-26T05:30:36;97481.94;;;7.17;76.48
53340;BME280;46212;50.258;19.062;2023-03-26T05:33:02;97479.00;;;7.29;75.71
53340;BME280;46212;50.258;19.062;2023-03-26T05:35:28;97487.09;;;7.33;75.35
53340;BME280;46212;50.258;19.062;2023-03-26T05:37:54;97482.97;;;7.37;74.98
53340;BME280;46212;50.258;19.062;2023-03-26T05:40:20;97476.59;;;7.31;75.30
53340;BME280;46212;50.258;19.062;2023-03-26T05:42:45;97490.59;;;7.42;74.81
53340;BME280;46212;50.258;19.062;2023-03-26T05:45:13;97486.63;;;7.43;74.64
53340;BME280;46212;50.258;19.062;2023-03-26T05:47:39;97484.50;;;7.47;74.28
53340;BME280;46212;50.258;19.062;2023-03-26T05:50:05;97472.09;;;7.52;74.50
53340;BME280;46212;50.258;19.062;2023-03-26T05:52:31;97487.66;;;7.64;73.73
53340;BME280;46212;50.258;19.062;2023-03-26T05:54:57;97486.41;;;7.65;73.54
53340;BME280;46212;50.258;19.062;2023-03-26T05:57:23;97482.44;;;7.66;73.46
53340;BME280;46212;50.258;19.062;2023-03-26T05:59:53;97479.09;;;7.62;72.96
53340;BME280;46212;50.258;19.062;2023-03-26T06:02:19;97481.69;;;7.66;73.46
53340;BME280;46212;50.258;19.062;2023-03-26T06:04:45;97481.81;;;7.71;73.46
53340;BME280;46212;50.258;19.062;2023-03-26T06:07:10;97487.13;;;7.75;73.02
53340;BME280;46212;50.258;19.062;2023-03-26T06:09:40;97485.59;;;7.74;72.75
53340;BME280;46212;50.258;19.062;2023-03-26T06:12:07;97492.03;;;7.80;72.32
53340;BME280;46212;50.258;19.062;2023-03-26T06:14:32;97493.53;;;7.81;72.56
53340;BME280;46212;50.258;19.062;2023-03-26T06:16:58;97488.47;;;7.88;72.31
53340;BME280;46212;50.258;19.062;2023-03-26T06:19:24;97481.09;;;7.94;71.75
53340;BME280;46212;50.258;19.062;2023-03-26T06:21:49;97477.16;;;7.86;72.17
53340;BME280;46212;50.258;19.062;2023-03-26T06:24:15;97491.38;;;7.85;71.88
53340;BME280;46212;50.258;19.062;2023-03-26T06:26:41;97484.44;;;7.98;71.84
53340;BME280;46212;50.258;19.062;2023-03-26T06:29:07;97500.56;;;8.15;71.34
53340;BME280;46212;50.258;19.062;2023-03-26T06:31:33;97491.78;;;8.25;71.01
53340;BME280;46212;50.258;19.062;2023-03-26T06:33:58;97487.53;;;8.24;70.61
53340;BME280;46212;50.258;19.062;2023-03-26T06:36:24;97481.06;;;8.36;71.01
53340;BME280;46212;50.258;19.062;2023-03-26T06:38:49;97485.16;;;8.41;70.76
53340;BME280;46212;50.258;19.062;2023-03-26T06:41:15;97488.59;;;8.50;69.75
53340;BME280;46212;50.258;19.062;2023-03-26T06:43:40;97488.91;;;8.52;69.56
53340;BME280;46212;50.258;19.062;2023-03-26T06:46:05;97498.38;;;8.51;68.84
53340;BME280;46212;50.258;19.062;2023-03-26T06:48:31;97486.97;;;8.44;69.17
53340;BME280;46212;50.258;19.062;2023-03-26T06:50:56;97495.97;;;8.44;69.44
53340;BME280;46212;50.258;19.062;2023-03-26T06:53:22;97493.94;;;8.54;69.62
53340;BME280;46212;50.258;19.062;2023-03-26T06:55:48;97491.34;;;8.50;69.95
53340;BME280;46212;50.258;19.062;2023-03-26T06:58:13;97490.91;;;8.52;68.91
53340;BME280;46212;50.258;19.062;2023-03-26T07:00:39;97497.78;;;8.47;68.90
53340;BME280;46212;50.258;19.062;2023-03-26T07:03:05;97494.16;;;8.41;69.31
53340;BME280;46212;50.258;19.062;2023-03-26T07:05:30;97508.03;;;8.47;69.23
53340;BME280;46212;50.258;19.062;2023-03-26T07:07:56;97500.19;;;8.54;68.48
53340;BME280;46212;50.258;19.062;2023-03-26T07:10:22;97496.06;;;8.59;68.77
53340;BME280;46212;50.258;19.062;2023-03-26T07:12:48;97492.41;;;8.53;68.29
53340;BME280;46212;50.258;19.062;2023-03-26T07:15:13;97507.25;;;8.56;68.99
53340;BME280;46212;50.258;19.062;2023-03-26T07:17:38;97486.63;;;8.51;68.56
53340;BME280;46212;50.258;19.062;2023-03-26T07:20:05;97501.91;;;8.52;68.79
53340;BME280;46212;50.258;19.062;2023-03-26T07:22:32;97499.06;;;8.37;69.27
53340;BME280;46212;50.258;19.062;2023-03-26T07:24:58;97495.09;;;8.38;69.29
53340;BME280;46212;50.258;19.062;2023-03-26T07:32:53;97495.13;;;8.62;68.98
53340;BME280;46212;50.258;19.062;2023-03-26T07:35:35;97492.69;;;8.79;68.61
53340;BME280;46212;50.258;19.062;2023-03-26T07:41:17;97490.25;;;8.95;68.28
53340;BME280;46212;50.258;19.062;2023-03-26T07:44:10;97502.13;;;9.01;67.33
53340;BME280;46212;50.258;19.062;2023-03-26T07:46:40;97497.97;;;9.06;67.34
53340;BME280;46212;50.258;19.062;2023-03-26T07:49:10;97503.22;;;9.19;66.60
53340;BME280;46212;50.258;19.062;2023-03-26T07:51:37;97495.16;;;9.30;66.72
53340;BME280;46212;50.258;19.062;2023-03-26T07:54:02;97499.63;;;9.42;66.97
53340;BME280;46212;50.258;19.062;2023-03-26T07:56:41;97509.91;;;9.41;65.43
53340;BME280;46212;50.258;19.062;2023-03-26T07:59:30;97517.22;;;9.44;65.94
53340;BME280;46212;50.258;19.062;2023-03-26T08:16:17;97504.78;;;10.28;63.37
53340;BME280;46212;50.258;19.062;2023-03-26T08:19:02;97495.97;;;10.24;62.18
53340;BME280;46212;50.258;19.062;2023-03-26T08:22:18;97496.81;;;10.15;61.96
53340;BME280;46212;50.258;19.062;2023-03-26T08:30:39;97484.72;;;10.27;60.42
53340;BME280;46212;50.258;19.062;2023-03-26T08:33:17;97494.81;;;10.30;61.16
53340;BME280;46212;50.258;19.062;2023-03-26T08:35:45;97481.75;;;10.31;60.81
53340;BME280;46212;50.258;19.062;2023-03-26T08:38:13;97480.53;;;10.52;61.43
53340;BME280;46212;50.258;19.062;2023-03-26T09:30:34;97466.13;;;11.34;56.30
53340;BME280;46212;50.258;19.062;2023-03-26T09:36:18;97459.78;;;11.54;54.58
53340;BME280;46212;50.258;19.062;2023-03-26T09:38:52;97453.25;;;11.83;55.99
53340;BME280;46212;50.258;19.062;2023-03-26T09:47:29;97463.69;;;11.42;54.70
53340;BME280;46212;50.258;19.062;2023-03-26T09:53:24;97464.28;;;11.00;56.34
53340;BME280;46212;50.258;19.062;2023-03-26T09:58:40;97457.81;;;10.62;59.22
53340;BME280;46212;50.258;19.062;2023-03-26T10:12:18;97472.97;;;9.97;65.00
53340;BME280;46212;50.258;19.062;2023-03-26T10:28:39;97448.56;;;10.25;69.86
53340;BME280;46212;50.258;19.062;2023-03-26T10:34:47;97442.56;;;10.47;67.72
53340;BME280;46212;50.258;19.062;2023-03-26T10:43:06;97430.22;;;11.08;65.48
53340;BME280;46212;50.258;19.062;2023-03-26T10:45:58;97433.75;;;11.09;64.63
53340;BME280;46212;50.258;19.062;2023-03-26T10:51:15;97437.94;;;11.56;63.35
53340;BME280;46212;50.258;19.062;2023-03-26T10:56:42;97412.94;;;12.07;60.74
53340;BME280;46212;50.258;19.062;2023-03-26T10:59:12;97419.13;;;12.39;59.42
53340;BME280;46212;50.258;19.062;2023-03-26T11:01:40;97406.38;;;12.64;58.39
53340;BME280;46212;50.258;19.062;2023-03-26T11:07:05;97415.53;;;12.81;57.08
53340;BME280;46212;50.258;19.062;2023-03-26T11:12:23;97396.53;;;12.52;56.32
53340;BME280;46212;50.258;19.062;2023-03-26T11:20:31;97392.19;;;13.21;54.36
53340;BME280;46212;50.258;19.062;2023-03-26T11:25:55;97381.34;;;13.56;52.56
53340;BME280;46212;50.258;19.062;2023-03-26T11:31:28;97378.84;;;13.25;51.87
53340;BME280;46212;50.258;19.062;2023-03-26T11:33:55;97389.84;;;12.92;53.34
53340;BME280;46212;50.258;19.062;2023-03-26T11:36:28;97382.00;;;12.73;53.60
53340;BME280;46212;50.258;19.062;2023-03-26T11:38:56;97387.78;;;12.75;53.67
53340;BME280;46212;50.258;19.062;2023-03-26T11:41:26;97384.28;;;12.97;53.07
53340;BME280;46212;50.258;19.062;2023-03-26T11:44:04;97364.72;;;13.45;51.86
53340;BME280;46212;50.258;19.062;2023-03-26T11:46:32;97371.78;;;13.63;51.52
53340;BME280;46212;50.258;19.062;2023-03-26T11:49:02;97362.91;;;13.81;50.56
53340;BME280;46212;50.258;19.062;2023-03-26T11:51:35;97362.19;;;13.69;50.58
53340;BME280;46212;50.258;19.062;2023-03-26T11:54:02;97369.25;;;13.59;51.24
53340;BME280;46212;50.258;19.062;2023-03-26T11:58:58;97358.69;;;13.41;51.19
53340;BME280;46212;50.258;19.062;2023-03-26T12:01:27;97373.53;;;13.21;51.91
53340;BME280;46212;50.258;19.062;2023-03-26T12:04:10;97356.34;;;12.95;51.73
53340;BME280;46212;50.258;19.062;2023-03-26T12:06:38;97352.28;;;12.74;52.49
53340;BME280;46212;50.258;19.062;2023-03-26T12:09:03;97352.38;;;13.18;51.92
53340;BME280;46212;50.258;19.062;2023-03-26T12:11:29;97356.41;;;13.40;51.13
53340;BME280;46212;50.258;19.062;2023-03-26T12:14:01;97348.25;;;13.86;50.56
53340;BME280;46212;50.258;19.062;2023-03-26T12:16:28;97332.44;;;13.53;50.17
53340;BME280;46212;50.258;19.062;2023-03-26T12:19:08;97333.91;;;13.76;50.01
53340;BME280;46212;50.258;19.062;2023-03-26T12:21:43;97331.38;;;13.78;49.37
53340;BME280;46212;50.258;19.062;2023-03-26T12:24:31;97326.66;;;14.42;48.89
53340;BME280;46212;50.258;19.062;2023-03-26T12:27:19;97316.50;;;14.91;47.45
53340;BME280;46212;50.258;19.062;2023-03-26T12:29:57;97310.47;;;15.76;44.32
53340;BME280;46212;50.258;19.062;2023-03-26T12:32:37;97303.38;;;15.51;43.10
53340;BME280;46212;50.258;19.062;2023-03-26T12:35:14;97315.72;;;14.96;43.55
53340;BME280;46212;50.258;19.062;2023-03-26T12:37:43;97315.47;;;14.53;43.72
53340;BME280;46212;50.258;19.062;2023-03-26T12:40:31;97308.78;;;14.21;44.26
53340;BME280;46212;50.258;19.062;2023-03-26T12:48:58;97287.78;;;13.51;43.79
53340;BME280;46212;50.258;19.062;2023-03-26T12:51:58;97293.56;;;13.64;44.12
53340;BME280;46212;50.258;19.062;2023-03-26T12:57:19;97280.63;;;17.97;34.84
53340;BME280;46212;50.258;19.062;2023-03-26T13:02:53;97279.00;;;17.63;34.26
53340;BME280;46212;50.258;19.062;2023-03-26T13:13:59;97261.34;;;19.01;33.40
53340;BME280;46212;50.258;19.062;2023-03-26T13:16:35;97267.91;;;17.12;37.62
53340;BME280;46212;50.258;19.062;2023-03-26T13:24:33;97277.19;;;14.76;42.40
53340;BME280;46212;50.258;19.062;2023-03-26T13:30:47;97262.38;;;15.27;42.17
53340;BME280;46212;50.258;19.062;2023-03-26T13:36:15;97254.41;;;15.67;41.86
53340;BME280;46212;50.258;19.062;2023-03-26T13:47:07;97260.75;;;16.66;37.78
53340;BME280;46212;50.258;19.062;2023-03-26T13:49:50;97252.09;;;16.14;39.12
53340;BME280;46212;50.258;19.062;2023-03-26T13:52:23;97258.75;;;15.08;41.00
53340;BME280;46212;50.258;19.062;2023-03-26T13:58:20;97256.44;;;13.84;44.03
53340;BME280;46212;50.258;19.062;2023-03-26T14:03:55;97238.44;;;13.16;46.57
53340;BME280;46212;50.258;19.062;2023-03-26T14:08:55;97236.91;;;13.04;47.32
53340;BME280;46212;50.258;19.062;2023-03-26T14:14:13;97245.22;;;12.88;48.13
53340;BME280;46212;50.258;19.062;2023-03-26T14:16:46;97223.06;;;13.04;49.70
53340;BME280;46212;50.258;19.062;2023-03-26T14:25:24;97219.31;;;13.18;47.41
53340;BME280;46212;50.258;19.062;2023-03-26T14:49:22;97207.94;;;12.50;50.44
53340;BME280;46212;50.258;19.062;2023-03-26T14:52:17;97198.63;;;12.31;52.29
53340;BME280;46212;50.258;19.062;2023-03-26T14:54:48;97206.44;;;12.27;51.95
53340;BME280;46212;50.258;19.062;2023-03-26T15:17:48;97173.72;;;12.47;50.56
53340;BME280;46212;50.258;19.062;2023-03-26T15:26:35;97174.22;;;12.35;50.76
53340;BME280;46212;50.258;19.062;2023-03-26T15:32:22;97170.72;;;12.45;50.66
53340;BME280;46212;50.258;19.062;2023-03-26T15:43:14;97158.63;;;13.72;46.17
53340;BME280;46212;50.258;19.062;2023-03-26T15:54:44;97167.41;;;12.91;45.22
53340;BME280;46212;50.258;19.062;2023-03-26T16:03:26;97155.81;;;12.93;44.44
53340;BME280;46212;50.258;19.062;2023-03-26T16:06:08;97152.81;;;12.96;44.67
53340;BME280;46212;50.258;19.062;2023-03-26T16:09:07;97148.75;;;12.97;44.41
53340;BME280;46212;50.258;19.062;2023-03-26T16:14:17;97146.72;;;14.59;40.74
53340;BME280;46212;50.258;19.062;2023-03-26T16:16:53;97163.75;;;14.45;40.96
53340;BME280;46212;50.258;19.062;2023-03-26T16:27:47;97158.06;;;13.05;44.29
53340;BME280;46212;50.258;19.062;2023-03-26T16:30:30;97141.19;;;13.03;44.72
53340;BME280;46212;50.258;19.062;2023-03-26T16:33:22;97148.00;;;12.91;44.62
53340;BME280;46212;50.258;19.062;2023-03-26T16:41:25;97143.25;;;12.81;45.18
53340;BME280;46212;50.258;19.062;2023-03-26T16:44:09;97137.47;;;12.51;45.87
53340;BME280;46212;50.258;19.062;2023-03-26T16:49:49;97137.22;;;12.32;46.45
53340;BME280;46212;50.258;19.062;2023-03-26T16:55:40;97140.97;;;12.12;46.98
53340;BME280;46212;50.258;19.062;2023-03-26T17:00:46;97144.72;;;11.93;47.43
53340;BME280;46212;50.258;19.062;2023-03-26T17:03:55;97143.72;;;11.90;47.70
53340;BME280;46212;50.258;19.062;2023-03-26T17:06:56;97144.66;;;11.70;48.21
53340;BME280;46212;50.258;19.062;2023-03-26T17:09:44;97144.38;;;11.63;48.78
53340;BME280;46212;50.258;19.062;2023-03-26T17:15:26;97147.38;;;11.54;48.96
53340;BME280;46212;50.258;19.062;2023-03-26T17:18:08;97145.06;;;11.41;49.53
53340;BME280;46212;50.258;19.062;2023-03-26T17:29:36;97142.13;;;11.08;50.80
53340;BME280;46212;50.258;19.062;2023-03-26T17:32:12;97144.41;;;11.09;51.32
53340;BME280;46212;50.258;19.062;2023-03-26T17:42:30;97145.31;;;10.95;52.02
53340;BME280;46212;50.258;19.062;2023-03-26T17:45:15;97144.53;;;10.89;52.14
53340;BME280;46212;50.258;19.062;2023-03-26T17:47:49;97142.72;;;10.81;52.40
53340;BME280;46212;50.258;19.062;2023-03-26T17:50:20;97146.25;;;10.81;52.30
53340;BME280;46212;50.258;19.062;2023-03-26T17:52:54;97136.63;;;10.71;52.73
53340;BME280;46212;50.258;19.062;2023-03-26T17:55:25;97140.41;;;10.74;52.60
53340;BME280;46212;50.258;19.062;2023-03-26T17:58:02;97144.13;;;10.65;53.65
53340;BME280;46212;50.258;19.062;2023-03-26T18:00:33;97139.19;;;10.80;53.78
53340;BME280;46212;50.258;19.062;2023-03-26T18:03:03;97143.44;;;10.76;52.61
53340;BME280;46212;50.258;19.062;2023-03-26T18:05:32;97141.69;;;10.78;52.58
53340;BME280;46212;50.258;19.062;2023-03-26T18:08:15;97146.69;;;10.74;52.58
53340;BME280;46212;50.258;19.062;2023-03-26T18:13:36;97147.41;;;10.69;52.91
53340;BME280;46212;50.258;19.062;2023-03-26T18:16:42;97154.38;;;10.59;53.22
53340;BME280;46212;50.258;19.062;2023-03-26T18:19:13;97162.59;;;10.53;53.84
53340;BME280;46212;50.258;19.062;2023-03-26T18:21:47;97161.91;;;10.58;53.23
53340;BME280;46212;50.258;19.062;2023-03-26T18:24:35;97156.63;;;10.60;53.30
53340;BME280;46212;50.258;19.062;2023-03-26T18:27:02;97153.09;;;10.60;53.41
53340;BME280;46212;50.258;19.062;2023-03-26T18:29:31;97158.28;;;10.47;54.07
53340;BME280;46212;50.258;19.062;2023-03-26T18:32:19;97148.03;;;10.53;53.78
53340;BME280;46212;50.258;19.062;2023-03-26T18:34:53;97142.50;;;10.53;53.53
53340;BME280;46212;50.258;19.062;2023-03-26T18:37:27;97146.53;;;10.52;53.77
53340;BME280;46212;50.258;19.062;2023-03-26T18:40:13;97151.44;;;10.37;54.66
53340;BME280;46212;50.258;19.062;2023-03-26T18:42:50;97152.53;;;10.50;54.12
53340;BME280;46212;50.258;19.062;2023-03-26T18:47:50;97152.53;;;10.50;53.82
53340;BME280;46212;50.258;19.062;2023-03-26T18:50:22;97142.22;;;10.45;54.07
53340;BME280;46212;50.258;19.062;2023-03-26T18:52:49;97142.69;;;10.44;54.15
53340;BME280;46212;50.258;19.062;2023-03-26T18:55:15;97149.34;;;10.57;53.71
53340;BME280;46212;50.258;19.062;2023-03-26T18:57:41;97160.13;;;10.55;53.82
53340;BME280;46212;50.258;19.062;2023-03-26T19:00:19;97153.03;;;10.49;54.11
53340;BME280;46212;50.258;19.062;2023-03-26T19:02:48;97151.28;;;10.51;54.25
53340;BME280;46212;50.258;19.062;2023-03-26T19:05:16;97153.03;;;10.49;54.35
53340;BME280;46212;50.258;19.062;2023-03-26T19:07:43;97148.50;;;10.46;54.68